Time;durP1;ratioP1;P1;durP2;ratioP2;P2;SDS_P1;SDS_P2;PMS_P1;PMS_P2;Temp;Humidity;BMP_temperature;BMP_pressure;BME280_temperature;BME280_humidity;BME280_pressure;Samples;Min_cycle;Max_cycle;Signal;HPM_P1;HPM_P2
2023/07/25 00:00:39;;;;;;;2.77;2.53;;;;;;;15.73;100.00;97170.75;5091014;28;20203;-86
2023/07/25 00:03:06;;;;;;;3.53;3.17;;;;;;;15.71;100.00;97170.09;5093816;28;20238;-86
2023/07/25 00:05:32;;;;;;;3.70;3.10;;;;;;;15.70;100.00;97182.56;5095516;28;20203;-86
2023/07/25 00:07:59;;;;;;;3.93;3.23;;;;;;;15.70;100.00;97184.41;5095042;28;20215;-87
2023/07/25 00:10:27;;;;;;;4.10;3.27;;;;;;;15.71;100.00;97178.91;5094722;28;20211;-86
2023/07/25 00:12:55;;;;;;;3.63;3.20;;;;;;;15.68;100.00;97176.56;5095476;28;20218;-87
2023/07/25 00:15:22;;;;;;;3.53;2.90;;;;;;;15.69;100.00;97161.41;5095499;28;20206;-87
2023/07/25 00:17:49;;;;;;;3.63;2.90;;;;;;;15.69;100.00;97166.75;5095245;28;20270;-87
2023/07/25 00:20:15;;;;;;;3.33;3.03;;;;;;;15.67;100.00;97163.41;5094662;28;20218;-87
2023/07/25 00:22:42;;;;;;;4.87;3.50;;;;;;;15.69;100.00;97161.41;5095763;28;20206;-86
2023/07/25 00:25:09;;;;;;;4.87;3.33;;;;;;;15.70;100.00;97173.75;5097594;28;20206;-86
2023/07/25 00:27:37;;;;;;;3.83;3.00;;;;;;;15.65;100.00;97168.06;5096580;28;20231;-86
2023/07/25 00:30:04;;;;;;;4.93;3.50;;;;;;;15.68;100.00;97167.75;5095010;28;20229;-89
2023/07/25 00:32:31;;;;;;;3.90;3.50;;;;;;;15.69;100.00;97156.94;5099789;28;20202;-86
2023/07/25 00:34:57;;;;;;;5.40;3.30;;;;;;;15.71;100.00;97146.94;5105776;28;20266;-86
2023/07/25 00:37:24;;;;;;;5.43;3.60;;;;;;;15.71;100.00;97146.94;5105040;28;20709;-86
2023/07/25 00:39:53;;;;;;;3.87;3.37;;;;;;;15.70;100.00;97131.13;5102500;28;20202;-86
2023/07/25 00:42:19;;;;;;;3.47;3.00;;;;;;;15.70;100.00;97123.97;5101984;28;20225;-86
2023/07/25 00:44:47;;;;;;;4.20;3.40;;;;;;;15.68;100.00;97122.44;5102365;28;20278;-86
2023/07/25 00:47:14;;;;;;;4.67;3.50;;;;;;;15.69;100.00;97121.44;5103839;28;20231;-88
2023/07/25 00:49:43;;;;;;;5.50;3.60;;;;;;;15.66;100.00;97119.13;5106144;28;20274;-87
2023/07/25 00:52:10;;;;;;;3.80;3.23;;;;;;;15.66;100.00;97121.78;5102918;28;20298;-87
2023/07/25 00:54:39;;;;;;;4.27;3.23;;;;;;;15.67;100.00;97126.97;5101243;28;20211;-86
2023/07/25 00:57:06;;;;;;;4.03;3.23;;;;;;;15.61;100.00;97116.94;5106353;28;20252;-87
2023/07/25 00:59:32;;;;;;;3.47;2.97;;;;;;;15.56;100.00;97121.06;5100964;28;20213;-86
2023/07/25 01:02:00;;;;;;;4.27;3.53;;;;;;;15.53;100.00;97121.41;5094963;28;20210;-87
2023/07/25 01:04:27;;;;;;;4.20;3.40;;;;;;;15.51;100.00;97126.06;5094667;28;20234;-87
2023/07/25 01:06:54;;;;;;;4.17;3.40;;;;;;;15.46;100.00;97117.72;5094736;28;20230;-87
2023/07/25 01:09:35;;;;;;;4.00;3.57;;;;;;;15.39;100.00;97117.53;5094388;28;20657;-86
2023/07/25 01:12:02;;;;;;;4.87;3.43;;;;;;;15.36;100.00;97106.34;5094801;28;20210;-86
2023/07/25 01:14:31;;;;;;;4.40;3.40;;;;;;;15.34;100.00;97108.34;5093700;28;20199;-87
2023/07/25 01:16:58;;;;;;;4.33;3.60;;;;;;;15.31;100.00;97109.47;5094911;28;20230;-87
2023/07/25 01:19:30;;;;;;;4.13;3.73;;;;;;;15.25;100.00;97114.59;5093841;28;20199;-86
2023/07/25 01:21:57;;;;;;;4.03;3.50;;;;;;;15.23;100.00;97119.25;5094855;28;20248;-87
2023/07/25 01:24:25;;;;;;;3.93;3.43;;;;;;;15.24;100.00;97118.25;5094224;28;20233;-87
2023/07/25 01:26:52;;;;;;;4.77;3.70;;;;;;;15.20;100.00;97112.41;5094452;28;20231;-86
2023/07/25 01:29:19;;;;;;;4.77;3.67;;;;;;;15.22;100.00;97114.94;5092982;28;20210;-88
2023/07/25 01:31:45;;;;;;;3.83;3.37;;;;;;;15.20;100.00;97101.78;5093765;28;20229;-87
2023/07/25 01:34:12;;;;;;;4.47;3.20;;;;;;;15.20;100.00;97100.91;5093809;28;20677;-88
2023/07/25 01:36:38;;;;;;;5.17;3.70;;;;;;;15.23;100.00;97104.13;5094173;28;20227;-87
2023/07/25 01:39:05;;;;;;;3.97;3.40;;;;;;;15.25;100.00;97098.63;5093449;28;20206;-86
2023/07/25 01:41:32;;;;;;;4.40;3.70;;;;;;;15.22;100.00;97086.47;5094024;28;20206;-86
2023/07/25 01:44:00;;;;;;;3.63;3.20;;;;;;;15.20;100.00;97074.31;5093946;28;20233;-87
2023/07/25 01:46:26;;;;;;;4.40;3.60;;;;;;;15.21;100.00;97060.03;5094140;28;20612;-87
2023/07/25 01:48:53;;;;;;;6.00;4.00;;;;;;;15.19;100.00;97064.66;5093644;28;20199;-87
2023/07/25 01:51:20;;;;;;;5.03;3.87;;;;;;;15.15;100.00;97066.00;5093247;28;20221;-88
2023/07/25 01:53:46;;;;;;;5.17;4.20;;;;;;;15.11;100.00;97065.47;5094189;28;20263;-87
2023/07/25 01:56:13;;;;;;;4.57;3.83;;;;;;;15.10;100.00;97062.97;5093908;28;20241;-87
2023/07/25 01:58:41;;;;;;;4.73;3.70;;;;;;;15.05;100.00;97057.28;5094289;28;20222;-86
2023/07/25 02:01:07;;;;;;;4.93;3.77;;;;;;;14.97;100.00;97047.44;5093072;28;20211;-87
2023/07/25 02:03:34;;;;;;;4.07;3.40;;;;;;;14.91;100.00;97053.38;5093933;28;20239;-87
2023/07/25 02:06:00;;;;;;;5.00;3.27;;;;;;;14.84;100.00;97052.34;5093435;28;20234;-87
2023/07/25 02:08:27;;;;;;;4.33;3.80;;;;;;;14.81;100.00;97051.84;5093250;28;20211;-87
2023/07/25 02:10:53;;;;;;;5.87;3.80;;;;;;;14.82;100.00;97064.13;5092486;28;20207;-87
2023/07/25 02:13:20;;;;;;;5.63;4.43;;;;;;;14.82;100.00;97056.16;5093282;28;20214;-87
2023/07/25 02:15:48;;;;;;;4.33;3.70;;;;;;;14.83;100.00;97044.53;5093068;28;20230;-87
2023/07/25 02:18:14;;;;;;;4.83;4.17;;;;;;;14.81;100.00;97041.19;5093062;28;20210;-87
2023/07/25 02:20:41;;;;;;;5.27;4.60;;;;;;;14.80;100.00;97040.34;5092431;28;20228;-85
2023/07/25 02:23:07;;;;;;;6.33;4.60;;;;;;;14.82;100.00;97032.22;5092844;28;20210;-88
2023/07/25 02:25:34;;;;;;;7.30;4.93;;;;;;;14.78;100.00;97037.03;5093158;28;20303;-89
2023/07/25 02:28:00;;;;;;;5.90;4.97;;;;;;;14.79;100.00;97032.56;5093021;28;20203;-88
2023/07/25 02:30:27;;;;;;;6.07;4.27;;;;;;;14.81;100.00;97035.88;5092035;28;20211;-89
2023/07/25 02:32:55;;;;;;;4.87;4.37;;;;;;;14.78;100.00;97030.88;5093000;28;20214;-89
2023/07/25 02:35:21;;;;;;;5.70;4.63;;;;;;;14.77;100.00;97022.06;5092918;28;20203;-89
2023/07/25 02:37:48;;;;;;;6.03;4.40;;;;;;;14.81;100.00;97004.81;5094699;28;20222;-89
2023/07/25 02:40:15;;;;;;;5.93;4.87;;;;;;;14.87;100.00;97005.97;5092099;28;20290;-89
2023/07/25 02:42:42;;;;;;;5.73;3.73;;;;;;;14.86;100.00;96999.81;5093186;28;20230;-89
2023/07/25 02:45:09;;;;;;;5.10;4.10;;;;;;;14.92;100.00;97011.66;5092708;28;20728;-89
2023/07/25 02:47:35;;;;;;;5.10;4.37;;;;;;;14.90;100.00;97003.03;5093060;28;20234;-90
2023/07/25 02:50:03;;;;;;;5.27;4.20;;;;;;;14.90;100.00;96998.50;5091976;28;20636;-89
2023/07/25 02:52:30;;;;;;;4.93;4.40;;;;;;;14.95;100.00;97006.00;5092865;28;20203;-89
2023/07/25 02:54:56;;;;;;;6.33;4.67;;;;;;;15.06;100.00;97016.38;5092408;28;20202;-89
2023/07/25 02:57:23;;;;;;;6.37;4.73;;;;;;;15.15;100.00;97012.75;5092174;28;20223;-89
2023/07/25 02:59:50;;;;;;;6.30;4.50;;;;;;;15.23;100.00;97021.63;5091649;28;20226;-89
2023/07/25 03:02:16;;;;;;;5.93;4.47;;;;;;;15.30;100.00;97013.78;5092545;28;20229;-89
2023/07/25 03:04:43;;;;;;;5.97;4.00;;;;;;;15.38;100.00;97011.19;5091974;28;20233;-89
2023/07/25 03:07:10;;;;;;;6.57;4.67;;;;;;;15.44;100.00;97014.03;5091902;28;20237;-89
2023/07/25 03:09:40;;;;;;;6.83;4.80;;;;;;;15.55;100.00;97021.72;5092333;28;20211;-89
2023/07/25 03:12:07;;;;;;;4.80;4.03;;;;;;;15.70;100.00;97013.94;5092805;28;20203;-89
2023/07/25 03:14:33;;;;;;;6.10;4.10;;;;;;;15.73;100.00;97002.94;5094658;28;20209;-89
2023/07/25 03:17:00;;;;;;;5.67;4.10;;;;;;;15.76;100.00;97008.75;5094194;28;20223;-89
2023/07/25 03:19:26;;;;;;;4.83;4.30;;;;;;;15.90;100.00;96989.47;5095035;28;20681;-89
2023/07/25 03:21:53;;;;;;;5.87;4.30;;;;;;;15.98;100.00;96993.94;5093340;28;20207;-89
2023/07/25 03:24:21;;;;;;;5.87;4.20;;;;;;;15.94;100.00;97001.44;5092269;28;20233;-89
2023/07/25 03:26:47;;;;;;;5.43;4.10;;;;;;;15.95;100.00;96997.78;5092227;28;20321;-89
2023/07/25 03:29:14;;;;;;;6.47;3.90;;;;;;;15.87;100.00;97010.25;5091395;28;20735;-90
2023/07/25 03:31:40;;;;;;;5.93;4.23;;;;;;;15.76;100.00;97013.28;5091868;28;20209;-89
2023/07/25 03:34:07;;;;;;;5.03;4.20;;;;;;;15.66;100.00;97020.56;5091824;28;20207;-89
2023/07/25 03:36:34;;;;;;;4.20;3.80;;;;;;;15.57;100.00;97030.38;5091530;28;20227;-89
2023/07/25 03:39:00;;;;;;;3.97;3.50;;;;;;;15.51;100.00;97024.88;5091857;28;20795;-89
2023/07/25 03:41:29;;;;;;;4.53;4.00;;;;;;;15.44;100.00;97029.16;5091280;28;20289;-89
2023/07/25 03:43:56;;;;;;;5.40;3.27;;;;;;;15.36;100.00;97024.69;5091809;28;20202;-89
2023/07/25 03:46:23;;;;;;;4.60;3.63;;;;;;;15.32;100.00;97036.63;5091562;28;20590;-89
2023/07/25 03:48:49;;;;;;;4.67;3.77;;;;;;;15.31;100.00;97029.63;5091800;28;20296;-89
2023/07/25 03:51:16;;;;;;;4.73;3.80;;;;;;;15.35;100.00;97024.81;5090833;28;20202;-89
2023/07/25 03:53:42;;;;;;;5.30;3.60;;;;;;;15.35;100.00;97031.00;5091340;28;20215;-89
2023/07/25 03:56:09;;;;;;;4.83;4.00;;;;;;;15.38;100.00;97035.97;5091376;28;20279;-89
2023/07/25 03:58:37;;;;;;;4.67;3.70;;;;;;;15.42;100.00;97036.50;5091462;28;20705;-89
2023/07/25 04:01:03;;;;;;;4.00;3.60;;;;;;;15.40;100.00;97027.84;5090538;28;20211;-89
2023/07/25 04:03:30;;;;;;;4.00;3.43;;;;;;;15.37;100.00;97030.81;5091251;28;20210;-89
2023/07/25 04:05:56;;;;;;;4.47;3.50;;;;;;;15.37;100.00;97033.47;5091132;28;20234;-89
2023/07/25 04:08:23;;;;;;;5.20;4.20;;;;;;;15.39;100.00;97032.31;5091391;28;20207;-89
2023/07/25 04:10:49;;;;;;;4.90;3.90;;;;;;;15.44;100.00;97023.84;5090440;28;20297;-89
2023/07/25 04:13:19;;;;;;;3.60;3.30;;;;;;;15.49;100.00;97024.19;5091065;28;20207;-89
2023/07/25 04:15:47;;;;;;;4.53;3.80;;;;;;;15.54;100.00;97025.38;5091094;28;20226;-89
2023/07/25 04:18:13;;;;;;;7.40;4.17;;;;;;;15.58;100.00;97005.41;5090956;28;20659;-89
2023/07/25 04:20:40;;;;;;;4.30;3.73;;;;;;;15.60;100.00;97007.91;5090334;28;20210;-90
2023/07/25 04:23:06;;;;;;;3.60;3.20;;;;;;;15.60;100.00;97018.56;5091024;28;20203;-89
2023/07/25 04:25:33;;;;;;;5.80;3.63;;;;;;;15.62;100.00;97016.56;5090699;28;20230;-89
2023/07/25 04:27:59;;;;;;;4.57;3.30;;;;;;;15.66;100.00;97029.41;5090847;28;20216;-89
2023/07/25 04:30:26;;;;;;;5.00;3.70;;;;;;;15.75;100.00;97032.91;5090181;28;20516;-89
2023/07/25 04:32:54;;;;;;;4.00;3.60;;;;;;;15.78;100.00;97035.25;5091012;28;20700;-89
2023/07/25 04:35:20;;;;;;;3.83;3.20;;;;;;;15.79;100.00;97036.91;5091045;28;20206;-89
2023/07/25 04:37:47;;;;;;;5.40;3.50;;;;;;;15.80;100.00;97035.91;5090869;28;20230;-89
2023/07/25 04:40:14;;;;;;;4.23;3.33;;;;;;;15.82;100.00;97040.06;5090470;28;20217;-89
2023/07/25 04:42:41;;;;;;;3.47;3.13;;;;;;;15.86;100.00;97032.56;5090704;28;20215;-90
2023/07/25 04:45:08;;;;;;;3.83;3.30;;;;;;;15.93;100.00;97037.09;5091045;28;20238;-89
2023/07/25 04:47:35;;;;;;;4.00;3.57;;;;;;;15.93;100.00;97042.41;5090799;28;20227;-90
2023/07/25 04:50:03;;;;;;;4.33;3.37;;;;;;;15.94;100.00;97043.28;5094339;28;20226;-90
2023/07/25 04:52:29;;;;;;;5.23;3.80;;;;;;;15.94;100.00;97044.09;5094931;28;20210;-90
2023/07/25 04:54:57;;;;;;;5.37;4.07;;;;;;;15.98;100.00;97042.75;5094995;28;20205;-90
2023/07/25 04:57:24;;;;;;;5.13;4.00;;;;;;;16.01;100.00;97042.41;5094793;28;20231;-88
2023/07/25 04:59:51;;;;;;;5.10;3.77;;;;;;;16.04;100.00;97040.25;5094034;28;20214;-88
2023/07/25 05:02:18;;;;;;;4.23;3.40;;;;;;;16.07;100.00;97038.28;5094741;28;20305;-88
2023/07/25 05:04:44;;;;;;;3.77;3.30;;;;;;;16.11;100.00;97045.75;5095112;28;20255;-88
2023/07/25 05:07:14;;;;;;;4.43;3.50;;;;;;;16.13;100.00;97055.28;5109065;22;20227;-77
2023/07/25 05:09:41;;;;;;;4.63;3.50;;;;;;;16.13;100.00;97047.28;5093876;28;20211;-77
2023/07/25 05:12:12;;;;;;;3.97;3.20;;;;;;;16.16;100.00;97054.91;5094335;28;20678;-77
2023/07/25 05:14:39;;;;;;;4.60;3.37;;;;;;;16.17;100.00;97056.59;5094474;28;20695;-78
2023/07/25 05:17:05;;;;;;;3.93;3.37;;;;;;;16.23;100.00;97055.09;5094439;28;20596;-76
2023/07/25 05:19:32;;;;;;;4.20;3.03;;;;;;;16.24;100.00;97052.28;5093824;28;20210;-77
2023/07/25 05:21:58;;;;;;;3.60;3.20;;;;;;;16.25;100.00;97053.94;5094357;28;20203;-78
2023/07/25 05:24:26;;;;;;;4.50;3.60;;;;;;;16.33;100.00;97045.91;5095032;28;20218;-76
2023/07/25 05:26:53;;;;;;;4.67;3.97;;;;;;;16.37;100.00;97057.09;5094482;28;20227;-76
2023/07/25 05:29:19;;;;;;;4.57;4.00;;;;;;;16.26;100.00;97065.41;5093718;28;20207;-77
2023/07/25 05:31:46;;;;;;;5.03;3.70;;;;;;;16.18;100.00;97068.09;5094044;28;20218;-75
2023/07/25 05:34:12;;;;;;;4.57;3.40;;;;;;;16.15;100.00;97074.59;5094011;28;20203;-75
2023/07/25 05:36:39;;;;;;;5.90;3.97;;;;;;;16.12;100.00;97070.59;5093941;28;20230;-78
2023/07/25 05:39:06;;;;;;;8.70;4.77;;;;;;;16.06;100.00;97065.94;5093788;28;20207;-77
2023/07/25 05:41:34;;;;;;;5.50;4.30;;;;;;;15.94;100.00;97064.59;5093567;28;20616;-76
2023/07/25 05:44:00;;;;;;;5.17;4.30;;;;;;;15.87;100.00;97068.88;5093718;28;20684;-78
2023/07/25 05:46:27;;;;;;;8.37;5.00;;;;;;;15.83;100.00;97062.22;5093683;28;20237;-77
2023/07/25 05:48:53;;;;;;;7.33;5.80;;;;;;;15.82;100.00;97053.41;5093670;28;20207;-78
2023/07/25 05:51:19;;;;;;;7.57;5.33;;;;;;;15.87;100.00;97051.06;5092980;28;20207;-77
2023/07/25 05:53:46;;;;;;;8.27;5.77;;;;;;;15.88;100.00;97047.41;5093627;28;20207;-77
2023/07/25 05:56:12;;;;;;;8.17;5.43;;;;;;;15.89;100.00;97053.59;5093640;28;20227;-76
2023/07/25 05:58:41;;;;;;;9.40;6.07;;;;;;;15.91;100.00;97048.91;5093545;28;20211;-76
2023/07/25 06:01:07;;;;;;;8.57;5.57;;;;;;;15.92;100.00;97050.56;5092225;28;20213;-76
2023/07/25 06:03:34;;;;;;;6.77;5.90;;;;;;;16.00;100.00;97053.28;5093387;28;20206;-76
2023/07/25 06:06:00;;;;;;;6.90;5.90;;;;;;;16.10;100.00;97044.91;5093105;28;20230;-77
2023/07/25 06:08:27;;;;;;;7.30;5.07;;;;;;;16.22;100.00;97037.44;5093161;28;20210;-75
2023/07/25 06:10:53;;;;;;;7.33;5.67;;;;;;;16.26;100.00;97039.59;5092671;28;20554;-75
2023/07/25 06:13:20;;;;;;;6.73;5.10;;;;;;;16.27;100.00;97035.13;5093342;28;20209;-75
2023/07/25 06:15:49;;;;;;;7.47;5.53;;;;;;;16.29;100.00;97039.28;5091663;28;20853;-75
2023/07/25 06:18:16;;;;;;;7.73;6.07;;;;;;;16.33;100.00;97029.94;5090558;28;20240;-76
2023/07/25 06:20:42;;;;;;;7.00;5.73;;;;;;;16.37;100.00;97039.25;5091398;28;20221;-76
2023/07/25 06:23:09;;;;;;;8.37;6.53;;;;;;;16.41;100.00;97037.94;5091887;28;20590;-77
2023/07/25 06:25:35;;;;;;;6.43;5.50;;;;;;;16.43;100.00;97045.78;5091161;28;20231;-76
2023/07/25 06:28:02;;;;;;;8.57;5.70;;;;;;;16.47;100.00;97039.94;5092420;28;20254;-75
2023/07/25 06:30:29;;;;;;;7.40;5.70;;;;;;;16.54;100.00;97043.63;5091423;28;20238;-76
2023/07/25 06:32:57;;;;;;;6.23;5.33;;;;;;;16.66;100.00;97041.41;5090447;28;20673;-76
2023/07/25 06:35:23;;;;;;;6.20;5.43;;;;;;;16.72;100.00;97036.25;5092798;28;20213;-76
2023/07/25 06:37:50;;;;;;;8.07;5.77;;;;;;;16.75;100.00;97038.56;5092578;28;20227;-75
2023/07/25 06:40:16;;;;;;;7.20;4.93;;;;;;;16.75;100.00;97043.91;5092160;28;20328;-77
2023/07/25 06:42:43;;;;;;;6.03;4.63;;;;;;;16.74;100.00;97034.22;5092345;28;20693;-76
2023/07/25 06:45:10;;;;;;;5.90;4.80;;;;;;;16.71;100.00;97039.91;5092522;28;20241;-76
2023/07/25 06:47:37;;;;;;;5.93;5.10;;;;;;;16.71;100.00;97031.91;5092389;28;20229;-76
2023/07/25 06:50:05;;;;;;;6.60;5.17;;;;;;;16.68;100.00;97032.25;5091672;28;20568;-75
2023/07/25 06:52:32;;;;;;;7.07;5.20;;;;;;;16.65;100.00;97035.25;5092561;28;20213;-74
2023/07/25 06:54:58;;;;;;;6.50;5.30;;;;;;;16.67;100.00;97035.06;5092310;28;20677;-76
2023/07/25 06:57:25;;;;;;;6.07;5.07;;;;;;;16.74;100.00;97026.22;5091584;28;20227;-77
2023/07/25 06:59:51;;;;;;;7.53;5.50;;;;;;;16.74;100.00;97020.03;5088901;28;20210;-76
2023/07/25 07:02:18;;;;;;;7.73;5.10;;;;;;;16.74;100.00;97023.56;5091235;28;20226;-76
2023/07/25 07:04:44;;;;;;;6.50;5.43;;;;;;;16.74;100.00;97020.91;5091365;28;20206;-75
2023/07/25 07:07:12;;;;;;;8.60;5.27;;;;;;;16.77;100.00;97012.53;5087105;28;20320;-76
2023/07/25 07:09:39;;;;;;;6.33;5.47;;;;;;;16.80;100.00;97011.34;5085743;28;20206;-76
2023/07/25 07:12:06;;;;;;;7.77;5.70;;;;;;;16.83;100.00;97005.69;5086904;28;20296;-76
2023/07/25 07:14:33;;;;;;;8.10;5.87;;;;;;;16.90;100.00;97012.84;5089545;28;20214;-75
2023/07/25 07:17:00;;;;;;;7.57;6.23;;;;;;;16.93;100.00;97017.84;5089509;28;20219;-76
2023/07/25 07:19:26;;;;;;;10.37;6.63;;;;;;;16.95;100.00;97012.34;5079826;28;20594;-76
2023/07/25 07:21:53;;;;;;;8.60;6.00;;;;;;;16.96;100.00;97011.31;5088825;28;20206;-76
2023/07/25 07:24:21;;;;;;;7.80;5.77;;;;;;;16.96;100.00;97000.66;5090000;28;20206;-75
2023/07/25 07:26:47;;;;;;;8.10;6.20;;;;;;;16.99;100.00;97000.28;5089976;28;20235;-75
2023/07/25 07:29:14;;;;;;;6.60;5.40;;;;;;;17.02;100.00;96995.44;5087844;28;20305;-75
2023/07/25 07:31:40;;;;;;;7.70;5.93;;;;;;;17.09;100.00;96996.44;5090178;28;20210;-74
2023/07/25 07:34:11;;;;;;;6.23;4.73;;;;;;;17.09;100.00;96985.75;5090853;28;20257;-75
2023/07/25 07:36:37;;;;;;;5.93;4.63;;;;;;;17.12;100.00;96996.06;5089607;28;20615;-76
2023/07/25 07:39:04;;;;;;;6.60;4.60;;;;;;;17.18;100.00;96990.03;5090069;28;20206;-76
2023/07/25 07:41:32;;;;;;;5.00;4.50;;;;;;;17.24;100.00;96989.34;5088646;28;20440;-76
2023/07/25 07:43:58;;;;;;;4.40;3.50;;;;;;;17.20;100.00;96996.00;5091384;28;20213;-77
2023/07/25 07:46:27;;;;;;;5.20;3.70;;;;;;;17.19;100.00;96999.69;5090172;28;20859;-75
2023/07/25 07:48:53;;;;;;;3.83;3.30;;;;;;;17.21;100.00;96999.53;5091564;28;20206;-75
2023/07/25 07:51:20;;;;;;;3.63;2.70;;;;;;;17.23;100.00;96998.34;5090606;28;20214;-76
2023/07/25 07:53:46;;;;;;;4.17;3.10;;;;;;;17.49;100.00;97001.56;5091635;28;20206;-80
2023/07/25 07:56:13;;;;;;;5.17;3.70;;;;;;;17.92;100.00;96994.78;5091344;28;20222;-76
2023/07/25 07:58:40;;;;;;;5.00;3.77;;;;;;;18.09;100.00;97007.00;5091391;28;20202;-75
2023/07/25 08:01:14;;;;;;;5.33;4.00;;;;;;;18.19;100.00;96997.75;5090520;28;20206;-77
2023/07/25 08:03:40;;;;;;;4.30;3.60;;;;;;;18.31;100.00;97000.84;5091545;28;20199;-76
2023/07/25 08:06:07;;;;;;;5.67;3.77;;;;;;;18.40;100.00;97010.47;5091181;28;20231;-75
2023/07/25 08:08:33;;;;;;;5.13;3.50;;;;;;;18.39;100.00;97014.97;5091385;28;20233;-75
2023/07/25 08:11:00;;;;;;;5.13;3.73;;;;;;;18.37;100.00;97025.03;5090272;28;20211;-74
2023/07/25 08:13:26;;;;;;;4.10;3.70;;;;;;;18.41;100.00;97029.00;5091101;28;20560;-74
2023/07/25 08:15:54;;;;;;;5.20;3.33;;;;;;;18.53;100.00;97027.53;5091109;28;20217;-75
2023/07/25 08:18:20;;;;;;;6.27;3.63;;;;;;;18.72;100.00;97021.66;5091451;28;20213;-75
2023/07/25 08:20:47;;;;;;;6.70;3.93;;;;;;;18.93;100.00;97024.47;5090489;28;20207;-75
2023/07/25 08:23:14;;;;;;;4.90;3.50;;;;;;;19.10;100.00;97015.22;5092251;28;20210;-74
2023/07/25 08:25:41;;;;;;;5.43;3.57;;;;;;;19.16;100.00;97010.97;5095113;28;20232;-76
2023/07/25 08:28:07;;;;;;;5.57;3.73;;;;;;;19.14;100.00;97010.34;5095050;28;20234;-75
2023/07/25 08:30:34;;;;;;;3.67;3.17;;;;;;;19.16;100.00;97009.13;5094326;28;20213;-74
2023/07/25 08:33:02;;;;;;;4.23;3.10;;;;;;;19.13;100.00;97009.50;5095084;28;20207;-77
2023/07/25 08:35:29;;;;;;;4.80;2.70;;;;;;;19.14;100.00;97011.16;5095086;28;20209;-74
2023/07/25 08:37:55;;;;;;;5.07;2.83;;;;;;;19.13;100.00;97012.16;5094559;28;20832;-76
2023/07/25 08:40:22;;;;;;;3.80;2.57;;;;;;;19.20;100.00;97004.22;5093729;28;20202;-76
2023/07/25 08:42:50;;;;;;;2.97;2.10;;;;;;;19.38;100.00;97005.53;5094887;28;20209;-74
2023/07/25 08:45:20;;;;;;;2.77;1.90;;;;;;;19.63;100.00;97000.66;5094911;28;20711;-76
2023/07/25 08:47:50;;;;;;;3.37;2.00;;;;;;;19.84;100.00;97009.56;5094852;28;20233;-77
2023/07/25 08:50:20;;;;;;;2.47;1.97;;;;;;;19.95;100.00;97005.53;5094127;28;20213;-76
2023/07/25 08:52:52;;;;;;;2.30;2.00;;;;;;;20.00;100.00;97001.25;5094914;28;20211;-77
2023/07/25 08:55:22;;;;;;;2.67;2.03;;;;;;;20.06;100.00;97005.88;5094691;28;20221;-74
2023/07/25 08:57:51;;;;;;;3.47;2.20;;;;;;;20.22;100.00;97008.31;5094845;28;20584;-75
2023/07/25 09:00:17;;;;;;;4.30;2.07;;;;;;;20.44;100.00;97001.91;5093922;28;20206;-75
2023/07/25 09:02:44;;;;;;;3.23;2.10;;;;;;;20.73;100.00;97004.38;5094581;28;20614;-77
2023/07/25 09:05:10;;;;;;;3.00;2.10;;;;;;;20.84;100.00;97011.91;5094733;28;20218;-77
2023/07/25 09:10:33;;;;;;;2.10;1.90;;;;;;;20.71;100.00;97005.59;5108740;27;20970;-77
2023/07/25 09:13:00;;;;;;;2.53;1.73;;;;;;;20.71;100.00;97008.28;5109194;28;20217;-78
2023/07/25 09:15:26;;;;;;;2.00;1.67;;;;;;;20.67;100.00;97005.16;5109438;28;20212;-75
2023/07/25 09:17:54;;;;;;;2.17;1.90;;;;;;;20.69;100.00;97000.44;5109131;28;20257;-75
2023/07/25 09:20:21;;;;;;;3.93;2.03;;;;;;;20.74;100.00;96995.34;5108423;28;20228;-77
2023/07/25 09:22:48;;;;;;;1.53;1.43;;;;;;;20.70;100.00;96991.38;5109082;28;20398;-75
2023/07/25 09:25:15;;;;;;;2.60;1.70;;;;;;;20.68;100.00;96998.81;5109229;28;20626;-77
2023/07/25 09:27:46;;;;;;;2.30;1.70;;;;;;;20.65;100.00;96992.97;5109010;28;20228;-75
2023/07/25 09:30:14;;;;;;;1.73;1.60;;;;;;;20.67;100.00;96997.13;5108357;28;20234;-77
2023/07/25 09:32:46;;;;;;;2.03;1.40;;;;;;;20.78;100.00;96993.09;5108833;28;20215;-75
2023/07/25 09:35:12;;;;;;;1.73;1.27;;;;;;;20.94;100.00;96988.25;5109296;28;20230;-75
2023/07/25 09:37:39;;;;;;;1.63;1.53;;;;;;;21.10;100.00;96982.53;5108867;28;20547;-76
2023/07/25 09:40:08;;;;;;;1.50;1.40;;;;;;;21.26;100.00;96982.22;5108274;28;20206;-75
2023/07/25 09:42:40;;;;;;;2.07;1.30;;;;;;;21.41;100.00;96977.53;5108700;28;20218;-77
2023/07/25 09:45:11;;;;;;;1.83;1.50;;;;;;;21.45;99.57;96978.78;5108681;28;20225;-77
2023/07/25 09:47:38;;;;;;;2.10;1.50;;;;;;;21.43;98.72;96972.78;5108812;28;20233;-78
2023/07/25 09:50:07;;;;;;;1.70;1.50;;;;;;;21.43;97.65;96988.91;5108059;28;20237;-79
2023/07/25 09:52:39;;;;;;;3.23;1.60;;;;;;;21.39;97.45;96976.91;5108760;28;20208;-77
2023/07/25 09:55:06;;;;;;;1.90;1.50;;;;;;;21.58;95.28;96973.44;5108687;28;20206;-78
2023/07/25 09:57:33;;;;;;;1.80;1.50;;;;;;;21.74;95.39;96975.81;5108240;28;20680;-79
2023/07/25 10:00:01;;;;;;;1.70;1.60;;;;;;;21.85;96.15;96971.69;5107616;28;20202;-79
2023/07/25 10:02:29;;;;;;;2.97;1.63;;;;;;;22.02;92.20;96956.81;5107946;28;20206;-77
2023/07/25 10:04:57;;;;;;;1.40;1.30;;;;;;;22.13;91.54;96970.50;5108464;28;20561;-78
2023/07/25 10:07:25;;;;;;;1.80;1.50;;;;;;;22.26;86.52;96954.34;5108439;28;20237;-77
2023/07/25 10:09:52;;;;;;;2.73;1.57;;;;;;;22.47;87.21;96951.50;5107355;28;20230;-76
2023/07/25 10:12:19;;;;;;;2.23;1.70;;;;;;;22.38;84.75;96957.25;5108095;28;20202;-80
2023/07/25 10:14:45;;;;;;;1.63;1.50;;;;;;;22.22;83.71;96945.03;5108445;28;20198;-80
2023/07/25 10:17:12;;;;;;;3.10;1.67;;;;;;;22.19;84.61;96948.13;5107900;28;20234;-75
2023/07/25 10:19:52;;;;;;;1.93;1.60;;;;;;;22.05;86.68;96962.63;5107098;28;20202;-77
2023/07/25 10:22:33;;;;;;;1.93;1.47;;;;;;;22.03;85.37;96953.94;5094482;28;20229;-77
2023/07/25 10:24:59;;;;;;;1.87;1.67;;;;;;;22.04;82.16;96950.22;5094348;28;20210;-77
2023/07/25 10:27:27;;;;;;;2.27;1.50;;;;;;;22.02;77.44;96922.69;5094239;28;20225;-77
2023/07/25 10:29:53;;;;;;;1.53;1.43;;;;;;;22.15;79.83;96941.53;5093677;28;20234;-77
2023/07/25 10:32:22;;;;;;;1.90;1.40;;;;;;;22.36;78.23;96930.53;5094379;28;20218;-79
2023/07/25 10:34:53;;;;;;;2.10;1.60;;;;;;;22.30;76.49;96931.38;5094419;28;20222;-77
2023/07/25 10:37:21;;;;;;;1.70;1.37;;;;;;;22.35;72.71;96907.34;5097429;28;20237;-78
2023/07/25 10:39:47;;;;;;;1.70;1.20;;;;;;;22.28;68.76;96886.84;5096229;28;20656;-77
2023/07/25 10:42:15;;;;;;;1.97;1.30;;;;;;;22.13;69.00;96900.50;5096924;28;20211;-76
2023/07/25 10:44:42;;;;;;;1.40;1.30;;;;;;;22.00;69.75;96905.09;5097128;28;20210;-76
2023/07/25 10:47:50;;;;;;;1.50;1.20;;;;;;;21.76;68.76;96914.56;5094786;28;20234;-77
2023/07/25 10:50:19;;;;;;;2.27;1.40;;;;;;;22.01;74.92;96944.41;5044635;28;20230;-76
2023/07/25 10:52:47;;;;;;;2.87;1.40;;;;;;;22.21;75.85;96945.25;5093508;28;20206;-77
2023/07/25 10:55:14;;;;;;;2.40;1.40;;;;;;;22.34;74.60;96935.31;5093620;28;20211;-76
2023/07/25 10:57:41;;;;;;;2.97;1.10;;;;;;;22.26;67.43;96903.19;5093728;28;20226;-75
2023/07/25 11:00:09;;;;;;;1.10;1.00;;;;;;;22.26;70.30;96916.66;5092820;28;20829;-76
2023/07/25 11:02:38;;;;;;;1.97;1.00;;;;;;;22.07;67.69;96895.97;5093590;28;20210;-77
2023/07/25 11:05:33;;;;;;;2.00;1.10;;;;;;;22.06;69.95;96907.75;5093654;28;20206;-77
2023/07/25 11:08:00;;;;;;;2.23;1.10;;;;;;;22.04;69.24;96896.38;5047766;22;20595;-81
2023/07/25 11:10:28;;;;;;;1.80;1.20;;;;;;;22.04;70.01;96896.38;5032368;28;20236;-88
2023/07/25 11:12:56;;;;;;;1.53;1.10;;;;;;;22.03;69.54;96905.50;5033054;28;20215;-85
2023/07/25 11:15:23;;;;;;;1.40;1.10;;;;;;;21.92;67.41;96902.59;5033658;28;20277;-84
2023/07/25 11:17:50;;;;;;;4.80;1.37;;;;;;;21.92;68.88;96902.59;5033120;28;20228;-82
2023/07/25 11:20:19;;;;;;;2.10;1.00;;;;;;;22.15;71.35;96928.06;5032005;28;20207;-81
2023/07/25 11:22:49;;;;;;;2.27;1.30;;;;;;;22.47;71.14;96924.56;5032714;28;20220;-82
2023/07/25 11:25:16;;;;;;;1.43;1.10;;;;;;;22.85;70.52;96922.81;5032607;28;20209;-83
2023/07/25 11:27:43;;;;;;;1.10;1.00;;;;;;;23.25;69.02;96910.91;5032699;28;20597;-82
2023/07/25 11:30:15;;;;;;;1.60;1.13;;;;;;;23.25;62.70;96881.25;5031922;28;20256;-82